createdAt,value
2024-03-26T00:01:16.813Z,25
2024-03-26T00:06:16.800Z,26
2024-03-26T00:11:16.840Z,23
2024-03-26T00:16:16.801Z,23
2024-03-26T00:21:16.816Z,21
2024-03-26T00:26:16.817Z,18
2024-03-26T00:31:16.818Z,23
2024-03-26T00:36:16.819Z,20
2024-03-26T00:41:16.805Z,18
2024-03-26T00:46:16.820Z,21
2024-03-26T00:51:16.807Z,21
2024-03-26T00:56:16.821Z,22
2024-03-26T01:01:16.823Z,25
2024-03-26T01:06:16.809Z,23
2024-03-26T01:11:16.824Z,19
2024-03-26T01:16:16.810Z,26
2024-03-26T01:21:16.825Z,21
2024-03-26T01:26:16.826Z,19
2024-03-26T01:31:16.827Z,25
2024-03-26T01:36:16.828Z,26
2024-03-26T01:41:16.814Z,24
2024-03-26T01:46:16.895Z,29
2024-03-26T01:51:16.815Z,25
2024-03-26T01:56:16.830Z,26
2024-03-26T02:01:16.831Z,25
2024-03-26T02:06:16.896Z,21
2024-03-26T02:11:16.833Z,25
2024-03-26T02:16:16.819Z,22
2024-03-26T02:21:16.834Z,21
2024-03-26T02:26:16.821Z,19
2024-03-26T02:31:16.835Z,17
2024-03-26T02:36:16.836Z,15
2024-03-26T02:41:16.823Z,20
2024-03-26T02:46:16.838Z,18
2024-03-26T02:51:16.824Z,19
2024-03-26T02:56:16.839Z,14
2024-03-26T03:01:16.839Z,22
2024-03-26T03:06:30.885Z,19
2024-03-26T03:11:16.841Z,21
2024-03-26T03:16:16.827Z,19
2024-03-26T03:21:16.842Z,24
2024-03-26T03:26:16.829Z,24
2024-03-26T03:31:16.844Z,29
2024-03-26T03:36:16.844Z,23
2024-03-26T03:41:16.831Z,21
2024-03-26T03:46:16.846Z,19
2024-03-26T03:51:16.832Z,27
2024-03-26T03:56:16.847Z,26
2024-03-26T04:01:16.833Z,30
2024-03-26T04:06:19.367Z,30
2024-03-26T04:11:16.849Z,26
2024-03-26T04:16:16.835Z,28
2024-03-26T04:21:16.850Z,29
2024-03-26T04:26:16.836Z,17
2024-03-26T04:31:16.876Z,16
2024-03-26T04:36:16.852Z,16
2024-03-26T04:41:16.853Z,19
2024-03-26T04:46:16.854Z,17
2024-03-26T04:51:16.840Z,20
2024-03-26T04:56:16.854Z,21
2024-03-26T05:01:16.841Z,22
2024-03-26T05:06:16.856Z,17
2024-03-26T05:11:16.856Z,21
2024-03-26T05:16:16.843Z,28
2024-03-26T05:21:16.858Z,19
2024-03-26T05:26:16.844Z,20
2024-03-26T05:31:16.859Z,34
2024-03-26T05:36:16.859Z,29
2024-03-26T05:41:16.860Z,24
2024-03-26T05:46:16.861Z,32
2024-03-26T05:51:16.847Z,29
2024-03-26T05:56:16.862Z,29
2024-03-26T06:01:16.849Z,35
2024-03-26T06:06:16.863Z,32
2024-03-26T06:11:16.864Z,32
2024-03-26T06:16:16.851Z,38
2024-03-26T06:21:16.866Z,39
2024-03-26T06:26:16.852Z,46
2024-03-26T06:31:16.867Z,61
2024-03-26T06:36:16.854Z,47
2024-03-26T06:41:16.869Z,42
2024-03-26T06:46:16.870Z,37
2024-03-26T06:51:16.856Z,52
2024-03-26T06:56:16.872Z,52
2024-03-26T07:01:16.858Z,61
2024-03-26T07:06:16.873Z,41
2024-03-26T07:11:16.874Z,47
2024-03-26T07:16:16.875Z,62
2024-03-26T07:21:16.876Z,61
2024-03-26T07:26:16.863Z,55
2024-03-26T07:31:16.878Z,57
2024-03-26T07:36:16.865Z,58
2024-03-26T07:41:16.880Z,68
2024-03-26T07:46:16.881Z,79
2024-03-26T07:51:16.907Z,83
2024-03-26T07:56:16.884Z,67
2024-03-26T08:01:16.870Z,78
2024-03-26T08:06:16.886Z,70
2024-03-26T08:11:16.872Z,73
2024-03-26T08:16:16.888Z,66
2024-03-26T08:21:16.889Z,74
2024-03-26T08:26:16.876Z,85
2024-03-26T08:31:16.892Z,84
2024-03-26T08:36:16.879Z,86
2024-03-26T08:41:16.894Z,103
2024-03-26T08:46:16.895Z,99
2024-03-26T08:51:16.897Z,107
2024-03-26T08:56:16.899Z,118
2024-03-26T09:01:16.886Z,113
2024-03-26T09:06:16.952Z,121
2024-03-26T09:11:16.889Z,100
2024-03-26T09:16:16.904Z,121
2024-03-26T09:21:16.906Z,109
2024-03-26T09:26:16.908Z,126
2024-03-26T09:31:16.910Z,127
2024-03-26T09:36:16.897Z,147
2024-03-26T09:41:16.912Z,114
2024-03-26T09:46:16.900Z,143
2024-03-26T09:51:16.916Z,134
2024-03-26T09:56:16.918Z,155
2024-03-26T10:01:16.906Z,158
2024-03-26T10:06:16.923Z,139
2024-03-26T10:11:16.910Z,147
2024-03-26T10:16:16.926Z,177
2024-03-26T10:21:16.929Z,151
2024-03-26T10:26:16.931Z,146
2024-03-26T10:31:16.933Z,138
2024-03-26T10:36:16.921Z,146
2024-03-26T10:41:16.938Z,149
2024-03-26T10:46:16.925Z,142
2024-03-26T10:51:16.941Z,154
2024-03-26T10:56:16.943Z,114
2024-03-26T11:01:16.945Z,160
2024-03-26T11:06:16.948Z,127
2024-03-26T11:11:16.936Z,141
2024-03-26T11:16:16.952Z,151
2024-03-26T11:21:16.940Z,176
2024-03-26T11:26:16.956Z,165
2024-03-26T11:31:16.958Z,162
2024-03-26T11:36:16.985Z,134
2024-03-26T11:41:16.963Z,144
2024-03-26T11:46:16.951Z,167
2024-03-26T11:51:16.967Z,144
2024-03-26T11:56:16.955Z,144
2024-03-26T12:01:16.971Z,171
2024-03-26T12:06:16.973Z,158
2024-03-26T12:11:16.961Z,120
2024-03-26T12:16:16.978Z,132
2024-03-26T12:21:16.965Z,119
2024-03-26T12:26:16.982Z,128
2024-03-26T12:31:16.984Z,138
2024-03-26T12:36:16.986Z,149
2024-03-26T12:41:16.989Z,119
2024-03-26T12:46:16.976Z,153
2024-03-26T12:51:16.992Z,148
2024-03-26T12:56:16.980Z,144
2024-03-26T13:01:17.061Z,155
2024-03-26T13:06:16.999Z,152
2024-03-26T13:11:17.001Z,172
2024-03-26T13:16:17.003Z,161
2024-03-26T13:21:16.991Z,146
2024-03-26T13:26:17.007Z,124
2024-03-26T13:31:16.995Z,153
2024-03-26T13:36:17.011Z,139
2024-03-26T13:41:17.014Z,135
2024-03-26T13:46:17.001Z,149
2024-03-26T13:51:17.018Z,129
2024-03-26T13:56:17.005Z,143
2024-03-26T14:01:17.022Z,169
2024-03-26T14:06:17.023Z,160
2024-03-26T14:11:17.026Z,150
2024-03-26T14:16:17.092Z,163
2024-03-26T14:21:17.016Z,153
2024-03-26T14:26:17.032Z,163
2024-03-26T14:31:17.020Z,185
2024-03-26T14:36:17.037Z,218
2024-03-26T14:41:17.039Z,150
2024-03-26T14:46:17.027Z,122
2024-03-26T14:51:17.044Z,166
2024-03-26T14:56:17.031Z,183
2024-03-26T15:01:17.048Z,184
2024-03-26T15:06:17.036Z,173
2024-03-26T15:11:17.052Z,195
2024-03-26T15:16:17.054Z,190
2024-03-26T15:21:17.042Z,176
2024-03-26T15:26:17.059Z,169
2024-03-26T15:31:17.046Z,191
2024-03-26T15:36:17.062Z,183
2024-03-26T15:41:17.064Z,168
2024-03-26T15:46:17.066Z,187
2024-03-26T15:51:17.069Z,203
2024-03-26T15:56:17.056Z,191
2024-03-26T16:01:17.072Z,163
2024-03-26T16:06:17.060Z,162
2024-03-26T16:11:17.076Z,155
2024-03-26T16:16:17.078Z,167
2024-03-26T16:21:17.066Z,147
2024-03-26T16:26:17.082Z,143
2024-03-26T16:31:17.070Z,177
2024-03-26T16:36:17.086Z,140
2024-03-26T16:41:17.087Z,108
2024-03-26T16:46:17.089Z,124
2024-03-26T16:51:17.092Z,104
2024-03-26T16:56:17.079Z,100
2024-03-26T17:01:17.095Z,156
2024-03-26T17:06:17.083Z,132
2024-03-26T17:11:17.099Z,127
2024-03-26T17:16:17.100Z,109
2024-03-26T17:21:17.102Z,98
2024-03-26T17:26:17.105Z,78
2024-03-26T17:31:17.091Z,91
2024-03-26T17:36:17.107Z,117
2024-03-26T17:41:17.095Z,115
2024-03-26T17:46:17.111Z,118
2024-03-26T17:51:17.112Z,103
2024-03-26T17:56:17.100Z,102
2024-03-26T18:01:17.116Z,135
2024-03-26T18:06:17.103Z,105
2024-03-26T18:11:17.118Z,78
2024-03-26T18:16:17.120Z,79
2024-03-26T18:21:17.122Z,95
2024-03-26T18:26:17.124Z,90
2024-03-26T18:31:17.110Z,91
2024-03-26T18:36:17.126Z,89
2024-03-26T18:41:17.113Z,77
2024-03-26T18:46:17.129Z,74
2024-03-26T18:51:17.130Z,83
2024-03-26T18:56:17.118Z,74
2024-03-26T19:01:17.134Z,89
2024-03-26T19:06:17.121Z,76
2024-03-26T19:11:17.136Z,72
2024-03-26T19:16:17.138Z,79
2024-03-26T19:21:17.139Z,97
2024-03-26T19:26:17.188Z,99
2024-03-26T19:31:17.128Z,79
2024-03-26T19:36:17.143Z,56
2024-03-26T19:41:17.131Z,58
2024-03-26T19:46:17.210Z,76
2024-03-26T19:51:17.148Z,83
2024-03-26T19:56:17.149Z,88
2024-03-26T20:01:17.151Z,84
2024-03-26T20:06:17.138Z,82
2024-03-26T20:11:17.153Z,54
2024-03-26T20:16:17.140Z,55
2024-03-26T20:21:17.156Z,51
2024-03-26T20:26:17.157Z,43
2024-03-26T20:31:17.144Z,55
2024-03-26T20:36:17.160Z,31
2024-03-26T20:41:17.147Z,27
2024-03-26T20:46:17.162Z,38
2024-03-26T20:51:17.163Z,33
2024-03-26T20:56:17.165Z,37
2024-03-26T21:01:17.166Z,37
2024-03-26T21:06:17.153Z,43
2024-03-26T21:11:17.168Z,43
2024-03-26T21:16:17.155Z,34
2024-03-26T21:21:17.171Z,38
2024-03-26T21:26:17.172Z,40
2024-03-26T21:31:17.159Z,42
2024-03-26T21:36:17.175Z,35
2024-03-26T21:41:17.161Z,37
2024-03-26T21:46:17.176Z,34
2024-03-26T21:51:17.163Z,39
2024-03-26T21:56:17.178Z,31
2024-03-26T22:01:17.179Z,30
2024-03-26T22:06:17.166Z,29
2024-03-26T22:11:17.182Z,25
2024-03-26T22:16:17.168Z,32
2024-03-26T22:21:17.184Z,38
2024-03-26T22:26:17.185Z,32
2024-03-26T22:31:17.186Z,42
2024-03-26T22:36:17.187Z,48
2024-03-26T22:41:17.173Z,36
2024-03-26T22:46:17.189Z,40
2024-03-26T22:51:17.175Z,40
2024-03-26T22:56:17.191Z,33
2024-03-26T23:01:17.191Z,36
2024-03-26T23:06:17.178Z,27
2024-03-26T23:11:17.194Z,25
2024-03-26T23:16:17.180Z,30
2024-03-26T23:21:17.195Z,25
2024-03-26T23:26:17.201Z,22
2024-03-26T23:31:17.197Z,35
2024-03-26T23:36:17.199Z,31
2024-03-26T23:41:17.185Z,34
2024-03-26T23:46:17.200Z,31
2024-03-26T23:51:17.187Z,26
2024-03-26T23:56:17.266Z,20
